sensor_id;sensor_type;location;lat;lon;timestamp;pressure;altitude;pressure_sealevel;temperature
34125;BMP280;20110;53.120;5.786;2022-11-27T00:00:35;102431.09;;;12.45
34125;BMP280;20110;53.120;5.786;2022-11-27T00:03:01;102408.56;;;12.35
34125;BMP280;20110;53.120;5.786;2022-11-27T00:05:27;102426.25;;;12.43
34125;BMP280;20110;53.120;5.786;2022-11-27T00:07:52;102419.22;;;12.40
34125;BMP280;20110;53.120;5.786;2022-11-27T00:10:18;102408.06;;;12.36
34125;BMP280;20110;53.120;5.786;2022-11-27T00:12:44;102384.31;;;12.22
34125;BMP280;20110;53.120;5.786;2022-11-27T00:15:10;102395.44;;;12.26
34125;BMP280;20110;53.120;5.786;2022-11-27T00:17:36;102408.31;;;12.33
34125;BMP280;20110;53.120;5.786;2022-11-27T00:20:02;102409.25;;;12.30
34125;BMP280;20110;53.120;5.786;2022-11-27T00:22:28;102411.44;;;12.26
34125;BMP280;20110;53.120;5.786;2022-11-27T00:24:54;102403.66;;;12.17
34125;BMP280;20110;53.120;5.786;2022-11-27T00:27:19;102401.22;;;12.13
34125;BMP280;20110;53.120;5.786;2022-11-27T00:29:45;102393.47;;;12.15
34125;BMP280;20110;53.120;5.786;2022-11-27T00:32:11;102409.22;;;12.19
34125;BMP280;20110;53.120;5.786;2022-11-27T00:34:37;102404.63;;;12.19
34125;BMP280;20110;53.120;5.786;2022-11-27T00:37:03;102394.94;;;12.16
34125;BMP280;20110;53.120;5.786;2022-11-27T00:39:28;102389.09;;;12.18
34125;BMP280;20110;53.120;5.786;2022-11-27T00:41:54;102376.28;;;12.10
34125;BMP280;20110;53.120;5.786;2022-11-27T00:44:20;102381.13;;;12.18
34125;BMP280;20110;53.120;5.786;2022-11-27T00:46:46;102358.84;;;11.98
34125;BMP280;20110;53.120;5.786;2022-11-27T00:49:14;102367.03;;;12.00
34125;BMP280;20110;53.120;5.786;2022-11-27T00:51:40;102374.56;;;12.07
34125;BMP280;20110;53.120;5.786;2022-11-27T00:54:06;102356.19;;;12.04
34125;BMP280;20110;53.120;5.786;2022-11-27T00:56:36;102357.84;;;12.07
34125;BMP280;20110;53.120;5.786;2022-11-27T00:59:04;102379.94;;;12.24
34125;BMP280;20110;53.120;5.786;2022-11-27T01:01:35;102355.44;;;12.03
34125;BMP280;20110;53.120;5.786;2022-11-27T01:04:04;102382.13;;;12.20
34125;BMP280;20110;53.120;5.786;2022-11-27T01:06:31;102369.53;;;12.21
34125;BMP280;20110;53.120;5.786;2022-11-27T01:08:58;102348.66;;;12.08
34125;BMP280;20110;53.120;5.786;2022-11-27T01:11:30;102338.69;;;11.86
34125;BMP280;20110;53.120;5.786;2022-11-27T01:14:01;102356.19;;;12.04
34125;BMP280;20110;53.120;5.786;2022-11-27T01:16:29;102371.47;;;12.20
34125;BMP280;20110;53.120;5.786;2022-11-27T01:18:57;102349.88;;;12.18
34125;BMP280;20110;53.120;5.786;2022-11-27T01:21:27;102367.59;;;12.27
34125;BMP280;20110;53.120;5.786;2022-11-27T01:23:53;102346.53;;;12.23
34125;BMP280;20110;53.120;5.786;2022-11-27T01:26:20;102352.13;;;12.36
34125;BMP280;20110;53.120;5.786;2022-11-27T01:28:46;102313.34;;;12.24
34125;BMP280;20110;53.120;5.786;2022-11-27T01:31:20;102315.81;;;12.33
34125;BMP280;20110;53.120;5.786;2022-11-27T01:33:47;102325.00;;;12.38
34125;BMP280;20110;53.120;5.786;2022-11-27T01:36:16;102313.88;;;12.45
34125;BMP280;20110;53.120;5.786;2022-11-27T01:38:42;102322.59;;;12.45
34125;BMP280;20110;53.120;5.786;2022-11-27T01:41:18;102326.22;;;12.54
34125;BMP280;20110;53.120;5.786;2022-11-27T01:46:39;102319.19;;;12.56
34125;BMP280;20110;53.120;5.786;2022-11-27T01:51:51;102288.41;;;12.38
34125;BMP280;20110;53.120;5.786;2022-11-27T01:54:19;102280.19;;;12.42
34125;BMP280;20110;53.120;5.786;2022-11-27T01:56:49;102299.06;;;12.50
34125;BMP280;20110;53.120;5.786;2022-11-27T01:59:17;102287.47;;;12.47
34125;BMP280;20110;53.120;5.786;2022-11-27T02:01:43;102279.22;;;12.51
34125;BMP280;20110;53.120;5.786;2022-11-27T02:04:09;102271.94;;;12.51
34125;BMP280;20110;53.120;5.786;2022-11-27T02:06:35;102223.53;;;12.30
34125;BMP280;20110;53.120;5.786;2022-11-27T02:09:01;102257.66;;;12.48
34125;BMP280;20110;53.120;5.786;2022-11-27T02:17:21;102225.69;;;12.43
34125;BMP280;20110;53.120;5.786;2022-11-27T02:20:12;102177.78;;;12.21
34125;BMP280;20110;53.120;5.786;2022-11-27T02:31:33;102216.72;;;12.57
34125;BMP280;20110;53.120;5.786;2022-11-27T02:34:29;102226.38;;;12.66
34125;BMP280;20110;53.120;5.786;2022-11-27T02:37:38;102219.59;;;12.70
34125;BMP280;20110;53.120;5.786;2022-11-27T02:40:40;102190.31;;;12.59
34125;BMP280;20110;53.120;5.786;2022-11-27T02:43:39;102224.66;;;12.79
34125;BMP280;20110;53.120;5.786;2022-11-27T02:46:09;102210.84;;;12.81
34125;BMP280;20110;53.120;5.786;2022-11-27T02:48:50;102224.66;;;12.79
34125;BMP280;20110;53.120;5.786;2022-11-27T02:51:21;102226.84;;;12.81
34125;BMP280;20110;53.120;5.786;2022-11-27T02:53:59;102223.94;;;12.79
34125;BMP280;20110;53.120;5.786;2022-11-27T02:56:28;102214.72;;;12.80
34125;BMP280;20110;53.120;5.786;2022-11-27T02:59:01;102211.59;;;12.81
34125;BMP280;20110;53.120;5.786;2022-11-27T03:01:33;102228.81;;;12.75
34125;BMP280;20110;53.120;5.786;2022-11-27T03:04:03;102214.31;;;12.59
34125;BMP280;20110;53.120;5.786;2022-11-27T03:06:45;102232.44;;;12.66
34125;BMP280;20110;53.120;5.786;2022-11-27T03:09:18;102219.38;;;12.74
34125;BMP280;20110;53.120;5.786;2022-11-27T03:11:46;102231.94;;;12.73
34125;BMP280;20110;53.120;5.786;2022-11-27T03:14:14;102239.94;;;12.73
34125;BMP280;20110;53.120;5.786;2022-11-27T03:17:00;102236.53;;;12.73
34125;BMP280;20110;53.120;5.786;2022-11-27T03:22:05;102192.50;;;12.55
34125;BMP280;20110;53.120;5.786;2022-11-27T03:24:34;102215.00;;;12.71
34125;BMP280;20110;53.120;5.786;2022-11-27T03:27:01;102139.94;;;12.50
34125;BMP280;20110;53.120;5.786;2022-11-27T03:29:59;102206.75;;;12.69
34125;BMP280;20110;53.120;5.786;2022-11-27T03:32:27;102197.06;;;12.66
34125;BMP280;20110;53.120;5.786;2022-11-27T03:34:55;102179.66;;;12.54
34125;BMP280;20110;53.120;5.786;2022-11-27T03:37:22;102193.94;;;12.56
34125;BMP280;20110;53.120;5.786;2022-11-27T03:39:49;102177.22;;;12.56
34125;BMP280;20110;53.120;5.786;2022-11-27T03:45:56;102193.22;;;12.56
34125;BMP280;20110;53.120;5.786;2022-11-27T03:51:14;102162.72;;;12.45
34125;BMP280;20110;53.120;5.786;2022-11-27T04:01:47;102150.63;;;12.33
34125;BMP280;20110;53.120;5.786;2022-11-27T04:04:13;102156.19;;;12.46
34125;BMP280;20110;53.120;5.786;2022-11-27T04:06:39;102163.44;;;12.46
34125;BMP280;20110;53.120;5.786;2022-11-27T04:09:05;102157.41;;;12.40
34125;BMP280;20110;53.120;5.786;2022-11-27T04:11:31;102156.91;;;12.53
34125;BMP280;20110;53.120;5.786;2022-11-27T04:13:57;102170.47;;;12.43
34125;BMP280;20110;53.120;5.786;2022-11-27T04:16:23;102159.84;;;12.32
34125;BMP280;20110;53.120;5.786;2022-11-27T04:18:48;102157.16;;;12.38
34125;BMP280;20110;53.120;5.786;2022-11-27T04:21:14;102153.78;;;12.32
34125;BMP280;20110;53.120;5.786;2022-11-27T04:23:42;102118.94;;;12.13
34125;BMP280;20110;53.120;5.786;2022-11-27T04:26:08;102136.84;;;12.24
34125;BMP280;20110;53.120;5.786;2022-11-27T04:28:34;102140.94;;;12.25
34125;BMP280;20110;53.120;5.786;2022-11-27T04:31:00;102134.41;;;12.26
34125;BMP280;20110;53.120;5.786;2022-11-27T04:33:26;102149.34;;;12.68
34125;BMP280;20110;53.120;5.786;2022-11-27T04:35:52;102131.47;;;12.40
34125;BMP280;20110;53.120;5.786;2022-11-27T04:38:20;102144.81;;;12.40
34125;BMP280;20110;53.120;5.786;2022-11-27T04:40:46;102142.59;;;12.50
34125;BMP280;20110;53.120;5.786;2022-11-27T04:43:12;102164.19;;;12.35
34125;BMP280;20110;53.120;5.786;2022-11-27T04:45:38;102160.53;;;12.44
34125;BMP280;20110;53.120;5.786;2022-11-27T04:48:06;102149.66;;;12.42
34125;BMP280;20110;53.120;5.786;2022-11-27T04:50:31;102169.25;;;12.56
34125;BMP280;20110;53.120;5.786;2022-11-27T04:52:58;102132.97;;;12.41
34125;BMP280;20110;53.120;5.786;2022-11-27T04:55:24;102146.44;;;12.60
34125;BMP280;20110;53.120;5.786;2022-11-27T04:57:50;102151.06;;;12.54
34125;BMP280;20110;53.120;5.786;2022-11-27T05:00:16;102123.00;;;12.36
34125;BMP280;20110;53.120;5.786;2022-11-27T05:02:42;102148.66;;;12.56
34125;BMP280;20110;53.120;5.786;2022-11-27T05:05:08;102153.25;;;12.56
34125;BMP280;20110;53.120;5.786;2022-11-27T05:07:34;102138.00;;;12.56
34125;BMP280;20110;53.120;5.786;2022-11-27T05:10:00;102128.81;;;12.46
34125;BMP280;20110;53.120;5.786;2022-11-27T05:12:26;102127.34;;;12.51
34125;BMP280;20110;53.120;5.786;2022-11-27T05:14:52;102140.88;;;12.64
34125;BMP280;20110;53.120;5.786;2022-11-27T05:17:18;102080.63;;;12.44
34125;BMP280;20110;53.120;5.786;2022-11-27T05:19:43;102107.50;;;12.46
34125;BMP280;20110;53.120;5.786;2022-11-27T05:22:09;102123.69;;;12.48
34125;BMP280;20110;53.120;5.786;2022-11-27T05:24:35;102139.91;;;12.61
34125;BMP280;20110;53.120;5.786;2022-11-27T05:27:01;102122.72;;;12.57
34125;BMP280;20110;53.120;5.786;2022-11-27T05:29:27;102138.69;;;12.68
34125;BMP280;20110;53.120;5.786;2022-11-27T05:31:52;102117.63;;;12.59
34125;BMP280;20110;53.120;5.786;2022-11-27T05:34:18;102132.16;;;12.63
34125;BMP280;20110;53.120;5.786;2022-11-27T05:36:44;102123.00;;;12.53
34125;BMP280;20110;53.120;5.786;2022-11-27T05:39:10;102118.84;;;12.58
34125;BMP280;20110;53.120;5.786;2022-11-27T05:41:39;102088.13;;;12.40
34125;BMP280;20110;53.120;5.786;2022-11-27T05:44:05;102119.56;;;12.58
34125;BMP280;20110;53.120;5.786;2022-11-27T05:46:31;102097.31;;;12.44
34125;BMP280;20110;53.120;5.786;2022-11-27T05:48:57;102113.75;;;12.54
34125;BMP280;20110;53.120;5.786;2022-11-27T05:51:23;102117.16;;;12.49
34125;BMP280;20110;53.120;5.786;2022-11-27T05:53:49;102093.25;;;12.32
34125;BMP280;20110;53.120;5.786;2022-11-27T05:56:17;102125.63;;;12.59
34125;BMP280;20110;53.120;5.786;2022-11-27T05:58:45;102117.13;;;12.60
34125;BMP280;20110;53.120;5.786;2022-11-27T06:01:13;102096.13;;;12.40
34125;BMP280;20110;53.120;5.786;2022-11-27T06:03:39;102127.28;;;12.67
34125;BMP280;20110;53.120;5.786;2022-11-27T06:06:15;102128.00;;;12.68
34125;BMP280;20110;53.120;5.786;2022-11-27T06:08:42;102118.53;;;12.78
34125;BMP280;20110;53.120;5.786;2022-11-27T06:11:19;102104.78;;;12.57
34125;BMP280;20110;53.120;5.786;2022-11-27T06:13:47;102106.28;;;12.53
34125;BMP280;20110;53.120;5.786;2022-11-27T06:16:20;102107.19;;;12.61
34125;BMP280;20110;53.120;5.786;2022-11-27T06:18:50;102078.41;;;12.48
34125;BMP280;20110;53.120;5.786;2022-11-27T06:21:17;102117.81;;;12.72
34125;BMP280;20110;53.120;5.786;2022-11-27T06:23:43;102102.84;;;12.63
34125;BMP280;20110;53.120;5.786;2022-11-27T06:28:42;102095.84;;;12.55
34125;BMP280;20110;53.120;5.786;2022-11-27T06:31:14;102092.44;;;12.48
34125;BMP280;20110;53.120;5.786;2022-11-27T06:33:40;102113.03;;;12.54
34125;BMP280;20110;53.120;5.786;2022-11-27T06:36:06;102050.66;;;12.16
34125;BMP280;20110;53.120;5.786;2022-11-27T06:38:34;102107.22;;;12.55
34125;BMP280;20110;53.120;5.786;2022-11-27T06:41:13;102070.44;;;12.37
34125;BMP280;20110;53.120;5.786;2022-11-27T06:43:39;102082.75;;;12.51
34125;BMP280;20110;53.120;5.786;2022-11-27T06:46:08;102060.47;;;12.54
34125;BMP280;20110;53.120;5.786;2022-11-27T06:48:35;102075.47;;;12.63
34125;BMP280;20110;53.120;5.786;2022-11-27T06:51:04;102086.88;;;12.63
34125;BMP280;20110;53.120;5.786;2022-11-27T06:53:33;102094.03;;;12.79
34125;BMP280;20110;53.120;5.786;2022-11-27T06:56:05;102075.91;;;12.67
34125;BMP280;20110;53.120;5.786;2022-11-27T06:58:31;102078.59;;;12.61
34125;BMP280;20110;53.120;5.786;2022-11-27T07:00:59;102070.63;;;12.56
34125;BMP280;20110;53.120;5.786;2022-11-27T07:03:26;102072.53;;;12.61
34125;BMP280;20110;53.120;5.786;2022-11-27T07:05:52;102057.56;;;12.58
34125;BMP280;20110;53.120;5.786;2022-11-27T07:08:18;102039.00;;;12.35
34125;BMP280;20110;53.120;5.786;2022-11-27T07:10:44;102063.69;;;12.41
34125;BMP280;20110;53.120;5.786;2022-11-27T07:13:09;102056.38;;;12.47
34125;BMP280;20110;53.120;5.786;2022-11-27T07:15:35;102080.56;;;12.55
34125;BMP280;20110;53.120;5.786;2022-11-27T07:18:02;102077.19;;;12.55
34125;BMP280;20110;53.120;5.786;2022-11-27T07:20:28;102055.69;;;12.41
34125;BMP280;20110;53.120;5.786;2022-11-27T07:22:54;102024.03;;;12.21
34125;BMP280;20110;53.120;5.786;2022-11-27T07:25:20;102065.56;;;12.58
34125;BMP280;20110;53.120;5.786;2022-11-27T07:27:46;102050.81;;;12.45
34125;BMP280;20110;53.120;5.786;2022-11-27T07:30:13;102030.78;;;12.33
34125;BMP280;20110;53.120;5.786;2022-11-27T07:32:38;102053.69;;;12.59
34125;BMP280;20110;53.120;5.786;2022-11-27T07:35:05;102067.69;;;12.70
34125;BMP280;20110;53.120;5.786;2022-11-27T07:37:32;102047.09;;;12.65
34125;BMP280;20110;53.120;5.786;2022-11-27T07:39:58;102031.84;;;12.60
34125;BMP280;20110;53.120;5.786;2022-11-27T07:42:24;102055.97;;;12.85
34125;BMP280;20110;53.120;5.786;2022-11-27T07:44:50;102012.25;;;12.63
34125;BMP280;20110;53.120;5.786;2022-11-27T07:47:15;102049.88;;;12.90
34125;BMP280;20110;53.120;5.786;2022-11-27T07:49:41;102026.94;;;12.75
34125;BMP280;20110;53.120;5.786;2022-11-27T07:52:07;102010.50;;;12.66
34125;BMP280;20110;53.120;5.786;2022-11-27T07:54:33;102033.00;;;12.76
34125;BMP280;20110;53.120;5.786;2022-11-27T07:56:59;102027.22;;;12.66
34125;BMP280;20110;53.120;5.786;2022-11-27T07:59:24;102039.09;;;12.65
34125;BMP280;20110;53.120;5.786;2022-11-27T08:01:50;102030.91;;;12.58
34125;BMP280;20110;53.120;5.786;2022-11-27T08:04:16;102043.44;;;12.68
34125;BMP280;20110;53.120;5.786;2022-11-27T08:06:42;102022.44;;;12.54
34125;BMP280;20110;53.120;5.786;2022-11-27T08:09:08;102030.63;;;12.61
34125;BMP280;20110;53.120;5.786;2022-11-27T08:11:34;102035.91;;;12.72
34125;BMP280;20110;53.120;5.786;2022-11-27T08:14:05;102032.84;;;12.63
34125;BMP280;20110;53.120;5.786;2022-11-27T08:16:33;102039.63;;;12.64
34125;BMP280;20110;53.120;5.786;2022-11-27T08:19:00;102010.38;;;12.47
34125;BMP280;20110;53.120;5.786;2022-11-27T08:21:27;102009.66;;;12.41
34125;BMP280;20110;53.120;5.786;2022-11-27T08:23:53;101903.63;;;11.70
34125;BMP280;20110;53.120;5.786;2022-11-27T08:26:19;102014.69;;;12.50
34125;BMP280;20110;53.120;5.786;2022-11-27T08:28:46;102027.78;;;12.48
34125;BMP280;20110;53.120;5.786;2022-11-27T08:31:13;102013.59;;;12.29
34125;BMP280;20110;53.120;5.786;2022-11-27T08:33:39;102000.31;;;12.12
34125;BMP280;20110;53.120;5.786;2022-11-27T08:36:05;102009.00;;;12.24
34125;BMP280;20110;53.120;5.786;2022-11-27T08:38:33;101996.63;;;12.26
34125;BMP280;20110;53.120;5.786;2022-11-27T08:41:02;101997.84;;;12.31
34125;BMP280;20110;53.120;5.786;2022-11-27T08:43:30;102026.41;;;12.41
34125;BMP280;20110;53.120;5.786;2022-11-27T08:45:56;102020.81;;;12.39
34125;BMP280;20110;53.120;5.786;2022-11-27T08:48:23;102016.19;;;12.40
34125;BMP280;20110;53.120;5.786;2022-11-27T08:50:51;102009.41;;;12.39
34125;BMP280;20110;53.120;5.786;2022-11-27T08:53:17;101969.59;;;12.11
34125;BMP280;20110;53.120;5.786;2022-11-27T08:55:44;101995.94;;;12.20
34125;BMP280;20110;53.120;5.786;2022-11-27T08:58:11;101995.94;;;12.20
34125;BMP280;20110;53.120;5.786;2022-11-27T09:00:38;101990.34;;;12.18
34125;BMP280;20110;53.120;5.786;2022-11-27T09:03:04;101989.91;;;12.20
34125;BMP280;20110;53.120;5.786;2022-11-27T09:05:32;101992.28;;;12.18
34125;BMP280;20110;53.120;5.786;2022-11-27T09:07:58;101999.97;;;12.38
34125;BMP280;20110;53.120;5.786;2022-11-27T09:10:27;102004.38;;;12.24
34125;BMP280;20110;53.120;5.786;2022-11-27T09:12:53;101985.75;;;12.24
34125;BMP280;20110;53.120;5.786;2022-11-27T09:15:20;102013.06;;;12.41
34125;BMP280;20110;53.120;5.786;2022-11-27T09:17:46;101989.59;;;12.29
34125;BMP280;20110;53.120;5.786;2022-11-27T09:20:12;102008.44;;;12.42
34125;BMP280;20110;53.120;5.786;2022-11-27T09:22:39;101952.34;;;12.18
34125;BMP280;20110;53.120;5.786;2022-11-27T09:25:05;101985.00;;;12.35
34125;BMP280;20110;53.120;5.786;2022-11-27T09:27:31;101982.78;;;12.39
34125;BMP280;20110;53.120;5.786;2022-11-27T09:29:57;101987.38;;;12.44
34125;BMP280;20110;53.120;5.786;2022-11-27T09:32:23;101976.03;;;12.32
34125;BMP280;20110;53.120;5.786;2022-11-27T09:34:51;101965.63;;;12.29
34125;BMP280;20110;53.120;5.786;2022-11-27T09:37:17;101976.28;;;12.34
34125;BMP280;20110;53.120;5.786;2022-11-27T09:39:42;101963.50;;;12.22
34125;BMP280;20110;53.120;5.786;2022-11-27T09:42:28;101972.94;;;12.23
34125;BMP280;20110;53.120;5.786;2022-11-27T09:44:58;101986.16;;;12.39
34125;BMP280;20110;53.120;5.786;2022-11-27T09:47:45;101979.94;;;12.26
34125;BMP280;20110;53.120;5.786;2022-11-27T09:50:28;101973.38;;;12.27
34125;BMP280;20110;53.120;5.786;2022-11-27T09:53:02;101977.44;;;12.44
34125;BMP280;20110;53.120;5.786;2022-11-27T09:55:56;101988.06;;;12.50
34125;BMP280;20110;53.120;5.786;2022-11-27T09:58:55;101982.94;;;12.63
34125;BMP280;20110;53.120;5.786;2022-11-27T10:01:31;101991.38;;;12.62
34125;BMP280;20110;53.120;5.786;2022-11-27T10:04:00;101965.81;;;12.42
34125;BMP280;20110;53.120;5.786;2022-11-27T10:06:44;101961.78;;;12.24
34125;BMP280;20110;53.120;5.786;2022-11-27T10:09:33;101996.81;;;12.45
34125;BMP280;20110;53.120;5.786;2022-11-27T10:15:20;101974.50;;;12.48
34125;BMP280;20110;53.120;5.786;2022-11-27T10:18:31;101973.28;;;12.49
34125;BMP280;20110;53.120;5.786;2022-11-27T10:21:14;101972.78;;;12.51
34125;BMP280;20110;53.120;5.786;2022-11-27T10:24:14;101973.78;;;12.53
34125;BMP280;20110;53.120;5.786;2022-11-27T10:26:48;101955.56;;;12.57
34125;BMP280;20110;53.120;5.786;2022-11-27T10:29:49;101959.69;;;12.58
34125;BMP280;20110;53.120;5.786;2022-11-27T10:32:22;101933.31;;;12.49
34125;BMP280;20110;53.120;5.786;2022-11-27T10:34:54;101924.16;;;12.44
34125;BMP280;20110;53.120;5.786;2022-11-27T10:37:31;101945.63;;;12.58
34125;BMP280;20110;53.120;5.786;2022-11-27T10:48:19;101906.38;;;12.58
34125;BMP280;20110;53.120;5.786;2022-11-27T10:50:45;101817.09;;;12.10
34125;BMP280;20110;53.120;5.786;2022-11-27T10:53:33;101912.91;;;12.63
34125;BMP280;20110;53.120;5.786;2022-11-27T10:59:01;101899.13;;;12.59
34125;BMP280;20110;53.120;5.786;2022-11-27T11:01:45;101893.47;;;12.68
34125;BMP280;20110;53.120;5.786;2022-11-27T11:04:14;101899.41;;;12.85
34125;BMP280;20110;53.120;5.786;2022-11-27T11:06:45;101888.84;;;12.74
34125;BMP280;20110;53.120;5.786;2022-11-27T11:09:45;101880.34;;;12.75
34125;BMP280;20110;53.120;5.786;2022-11-27T11:12:21;101880.75;;;12.85
34125;BMP280;20110;53.120;5.786;2022-11-27T11:14:54;101897.06;;;13.06
34125;BMP280;20110;53.120;5.786;2022-11-27T11:17:32;101873.31;;;13.02
34125;BMP280;20110;53.120;5.786;2022-11-27T11:20:20;101884.94;;;13.05
34125;BMP280;20110;53.120;5.786;2022-11-27T11:22:46;101879.75;;;13.12
34125;BMP280;20110;53.120;5.786;2022-11-27T11:25:18;101876.91;;;13.10
34125;BMP280;20110;53.120;5.786;2022-11-27T11:27:46;101844.94;;;13.05
34125;BMP280;20110;53.120;5.786;2022-11-27T11:30:26;101864.56;;;13.32
34125;BMP280;20110;53.120;5.786;2022-11-27T11:33:00;101863.41;;;13.46
34125;BMP280;20110;53.120;5.786;2022-11-27T11:35:35;101835.50;;;13.47
34125;BMP280;20110;53.120;5.786;2022-11-27T11:38:14;101795.75;;;13.00
34125;BMP280;20110;53.120;5.786;2022-11-27T11:40:41;101829.16;;;13.31
34125;BMP280;20110;53.120;5.786;2022-11-27T11:43:34;101849.28;;;13.32
34125;BMP280;20110;53.120;5.786;2022-11-27T11:46:24;101875.09;;;13.43
34125;BMP280;20110;53.120;5.786;2022-11-27T11:49:01;101843.03;;;13.24
34125;BMP280;20110;53.120;5.786;2022-11-27T11:55:04;101832.53;;;13.32
34125;BMP280;20110;53.120;5.786;2022-11-27T12:00:13;101830.09;;;13.34
34125;BMP280;20110;53.120;5.786;2022-11-27T12:28:28;101797.94;;;13.45
34125;BMP280;20110;53.120;5.786;2022-11-27T12:40:27;101770.09;;;13.40
34125;BMP280;20110;53.120;5.786;2022-11-27T12:46:00;101749.06;;;13.55
34125;BMP280;20110;53.120;5.786;2022-11-27T12:48:35;101750.50;;;13.57
34125;BMP280;20110;53.120;5.786;2022-11-27T12:51:12;101717.91;;;13.45
34125;BMP280;20110;53.120;5.786;2022-11-27T12:53:57;101707.50;;;13.60
34125;BMP280;20110;53.120;5.786;2022-11-27T12:56:44;101723.84;;;13.70
34125;BMP280;20110;53.120;5.786;2022-11-27T12:59:25;101718.19;;;13.60
34125;BMP280;20110;53.120;5.786;2022-11-27T13:04:42;101727.47;;;13.72
34125;BMP280;20110;53.120;5.786;2022-11-27T13:10:12;101736.13;;;13.60
34125;BMP280;20110;53.120;5.786;2022-11-27T13:15:40;101747.19;;;13.50
34125;BMP280;20110;53.120;5.786;2022-11-27T13:18:30;101737.44;;;13.53
34125;BMP280;20110;53.120;5.786;2022-11-27T13:21:02;101726.75;;;13.53
34125;BMP280;20110;53.120;5.786;2022-11-27T13:23:33;101736.63;;;13.58
34125;BMP280;20110;53.120;5.786;2022-11-27T13:26:05;101732.09;;;13.53
34125;BMP280;20110;53.120;5.786;2022-11-27T13:28:51;101706.59;;;13.39
34125;BMP280;20110;53.120;5.786;2022-11-27T13:31:26;101705.38;;;13.40
34125;BMP280;20110;53.120;5.786;2022-11-27T13:34:01;101704.28;;;13.30
34125;BMP280;20110;53.120;5.786;2022-11-27T13:36:34;101717.03;;;13.55
34125;BMP280;20110;53.120;5.786;2022-11-27T13:39:02;101650.63;;;13.14
34125;BMP280;20110;53.120;5.786;2022-11-27T13:41:37;101697.97;;;13.46
34125;BMP280;20110;53.120;5.786;2022-11-27T13:44:25;101697.28;;;13.45
34125;BMP280;20110;53.120;5.786;2022-11-27T13:46:56;101703.06;;;13.49
34125;BMP280;20110;53.120;5.786;2022-11-27T13:49:31;101700.50;;;13.38
34125;BMP280;20110;53.120;5.786;2022-11-27T13:52:24;101666.56;;;13.20
34125;BMP280;20110;53.120;5.786;2022-11-27T13:54:56;101686.28;;;13.17
34125;BMP280;20110;53.120;5.786;2022-11-27T13:57:23;101680.41;;;13.18
34125;BMP280;20110;53.120;5.786;2022-11-27T14:00:11;101683.88;;;13.13
34125;BMP280;20110;53.120;5.786;2022-11-27T14:02:47;101670.84;;;13.10
34125;BMP280;20110;53.120;5.786;2022-11-27T14:05:31;101624.56;;;12.89
34125;BMP280;20110;53.120;5.786;2022-11-27T14:07:58;101623.84;;;12.88
34125;BMP280;20110;53.120;5.786;2022-11-27T14:10:28;101661.81;;;13.13
34125;BMP280;20110;53.120;5.786;2022-11-27T14:12:58;101658.50;;;13.07
34125;BMP280;20110;53.120;5.786;2022-11-27T14:15:28;101637.53;;;12.98
34125;BMP280;20110;53.120;5.786;2022-11-27T14:18:17;101647.91;;;13.01
34125;BMP280;20110;53.120;5.786;2022-11-27T14:21:00;101662.16;;;13.04
34125;BMP280;20110;53.120;5.786;2022-11-27T14:23:46;101655.56;;;13.10
34125;BMP280;20110;53.120;5.786;2022-11-27T14:28:42;101630.03;;;12.96
34125;BMP280;20110;53.120;5.786;2022-11-27T14:31:31;101649.66;;;13.17
34125;BMP280;20110;53.120;5.786;2022-11-27T14:33:57;101589.91;;;12.70
34125;BMP280;20110;53.120;5.786;2022-11-27T14:36:31;101642.50;;;13.07
34125;BMP280;20110;53.120;5.786;2022-11-27T14:39:03;101592.06;;;12.71
34125;BMP280;20110;53.120;5.786;2022-11-27T14:41:30;101638.41;;;13.06
34125;BMP280;20110;53.120;5.786;2022-11-27T14:44:13;101598.47;;;12.81
34125;BMP280;20110;53.120;5.786;2022-11-27T14:46:40;101608.56;;;12.89
34125;BMP280;20110;53.120;5.786;2022-11-27T14:49:16;101599.91;;;12.82
34125;BMP280;20110;53.120;5.786;2022-11-27T14:51:43;101597.09;;;12.94
34125;BMP280;20110;53.120;5.786;2022-11-27T14:54:15;101604.59;;;12.95
34125;BMP280;20110;53.120;5.786;2022-11-27T14:56:43;101561.59;;;12.67
34125;BMP280;20110;53.120;5.786;2022-11-27T14:59:27;101586.81;;;12.85
34125;BMP280;20110;53.120;5.786;2022-11-27T15:02:14;101596.66;;;12.90
34125;BMP280;20110;53.120;5.786;2022-11-27T15:04:43;101574.34;;;12.74
34125;BMP280;20110;53.120;5.786;2022-11-27T15:07:30;101594.72;;;12.90
34125;BMP280;20110;53.120;5.786;2022-11-27T15:09:58;101584.16;;;12.85
34125;BMP280;20110;53.120;5.786;2022-11-27T15:12:41;101553.31;;;12.70
34125;BMP280;20110;53.120;5.786;2022-11-27T15:15:26;101591.56;;;12.92
34125;BMP280;20110;53.120;5.786;2022-11-27T15:18:01;101576.44;;;12.81
34125;BMP280;20110;53.120;5.786;2022-11-27T15:20:37;101579.53;;;12.85
34125;BMP280;20110;53.120;5.786;2022-11-27T15:23:15;101567.94;;;12.64
34125;BMP280;20110;53.120;5.786;2022-11-27T15:25:45;101574.75;;;12.78
34125;BMP280;20110;53.120;5.786;2022-11-27T15:36:56;101577.28;;;12.89
34125;BMP280;20110;53.120;5.786;2022-11-27T15:39:57;101550.78;;;12.78
34125;BMP280;20110;53.120;5.786;2022-11-27T15:42:24;101561.25;;;12.76
34125;BMP280;20110;53.120;5.786;2022-11-27T15:44:56;101571.38;;;12.77
34125;BMP280;20110;53.120;5.786;2022-11-27T15:47:31;101532.63;;;12.58
34125;BMP280;20110;53.120;5.786;2022-11-27T15:49:59;101573.19;;;12.88
34125;BMP280;20110;53.120;5.786;2022-11-27T15:52:26;101578.88;;;12.98
34125;BMP280;20110;53.120;5.786;2022-11-27T15:54:52;101551.56;;;12.92
34125;BMP280;20110;53.120;5.786;2022-11-27T15:57:20;101519.16;;;12.69
34125;BMP280;20110;53.120;5.786;2022-11-27T15:59:45;101549.84;;;12.94
34125;BMP280;20110;53.120;5.786;2022-11-27T16:02:12;101534.94;;;12.86
34125;BMP280;20110;53.120;5.786;2022-11-27T16:04:39;101503.47;;;12.65
34125;BMP280;20110;53.120;5.786;2022-11-27T16:07:06;101542.84;;;12.91
34125;BMP280;20110;53.120;5.786;2022-11-27T16:09:33;101535.50;;;12.97
34125;BMP280;20110;53.120;5.786;2022-11-27T16:12:01;101537.13;;;13.00
34125;BMP280;20110;53.120;5.786;2022-11-27T16:14:27;101521.97;;;12.95
34125;BMP280;20110;53.120;5.786;2022-11-27T16:16:52;101504.53;;;12.94